www.cux-wetter.de
Wetterdaten: Freitag, 17.02.2012
Datum Zeit Temp. A. Feuchte A. Luftdruck Regen Wind Richtung Richtung Sonnenschein Solar Taupunkt Windchill Windben
17.02.2012 00:00 3,1 C 95 % 1015,5 hPa 0,0 l/m 22,1 km/h (4 Bft) W 275 0 min 0 W/m 2,4 C -6,5 C 22,1 km/h (4 Bft)
17.02.2012 00:15 3,2 C 95 % 1015,5 hPa 0,0 l/m 21,9 km/h (4 Bft) W-NW 285 0 min 0 W/m 2,5 C -6,3 C 21,9 km/h (4 Bft)
17.02.2012 00:30 3,4 C 96 % 1015,5 hPa 0,0 l/m 24,0 km/h (4 Bft) W-NW 285 0 min 0 W/m 2,8 C -6,8 C 24,0 km/h (4 Bft)
17.02.2012 00:45 3,5 C 96 % 1015,5 hPa 0,0 l/m 26,7 km/h (4 Bft) W 280 0 min 0 W/m 2,9 C -7,5 C 26,7 km/h (4 Bft)
17.02.2012 01:00 3,5 C 96 % 1014,5 hPa 0,0 l/m 24,0 km/h (4 Bft) W-NW 285 0 min 0 W/m 2,9 C -6,6 C 24,0 km/h (4 Bft)
17.02.2012 01:15 3,5 C 96 % 1014,5 hPa 0,0 l/m 25,6 km/h (4 Bft) NW 310 0 min 0 W/m 2,9 C -7,2 C 25,6 km/h (4 Bft)
17.02.2012 01:30 3,4 C 96 % 1015,5 hPa 0,0 l/m 29,5 km/h (5 Bft) W-NW 295 0 min 0 W/m 2,8 C -8,5 C 29,5 km/h (5 Bft)
17.02.2012 01:45 3,3 C 96 % 1015,5 hPa 0,0 l/m 25,0 km/h (4 Bft) NW 305 0 min 0 W/m 2,7 C -7,2 C 25,0 km/h (4 Bft)
17.02.2012 02:00 3,4 C 96 % 1014,5 hPa 0,0 l/m 24,7 km/h (4 Bft) W-NW 295 0 min 0 W/m 2,8 C -7,0 C 24,7 km/h (4 Bft)
17.02.2012 02:14 3,4 C 96 % 1015,5 hPa 0,0 l/m 25,8 km/h (4 Bft) W-NW 285 0 min 0 W/m 2,8 C -7,4 C 25,8 km/h (4 Bft)
17.02.2012 02:30 3,5 C 96 % 1014,5 hPa 0,0 l/m 20,0 km/h (4 Bft) W-NW 290 0 min 0 W/m 2,9 C -5,1 C 20,0 km/h (4 Bft)
17.02.2012 02:45 3,6 C 96 % 1014,5 hPa 0,0 l/m 20,3 km/h (4 Bft) W-NW 295 0 min 0 W/m 3,0 C -5,1 C 20,3 km/h (4 Bft)
17.02.2012 03:00 3,6 C 96 % 1014,5 hPa 0,0 l/m 22,3 km/h (4 Bft) W-NW 295 0 min 0 W/m 3,0 C -5,9 C 22,3 km/h (4 Bft)
17.02.2012 03:15 3,6 C 96 % 1014,5 hPa 0,0 l/m 21,1 km/h (4 Bft) W-NW 290 0 min 0 W/m 3,0 C -5,4 C 21,1 km/h (4 Bft)
17.02.2012 03:30 3,7 C 96 % 1041,5 hPa 0,0 l/m 25,0 km/h (4 Bft) W-NW 295 0 min 0 W/m 3,1 C -6,7 C 25,0 km/h (4 Bft)
17.02.2012 03:45 3,8 C 96 % 1014,5 hPa 0,0 l/m 19,1 km/h (3 Bft) W-NW 285 0 min 0 W/m 3,2 C -4,3 C 19,1 km/h (3 Bft)
17.02.2012 04:00 3,7 C 96 % 1014,5 hPa 0,0 l/m 24,6 km/h (4 Bft) W-NW 295 0 min 0 W/m 3,1 C -6,6 C 24,6 km/h (4 Bft)
17.02.2012 04:15 3,6 C 96 % 1014,5 hPa 0,0 l/m 19,0 km/h (3 Bft) W-NW 290 0 min 0 W/m 3,0 C -4,6 C 19,0 km/h (3 Bft)
17.02.2012 04:30 3,5 C 96 % 1014,5 hPa 0,0 l/m 24,3 km/h (4 Bft) W-NW 295 0 min 0 W/m 2,9 C -6,7 C 24,3 km/h (4 Bft)
17.02.2012 04:45 3,5 C 96 % 1014,5 hPa 0,0 l/m 19,9 km/h (4 Bft) W-NW 285 0 min 0 W/m 2,9 C -5,1 C 19,9 km/h (4 Bft)
17.02.2012 05:00 3,4 C 96 % 1014,5 hPa 0,0 l/m 21,1 km/h (4 Bft) W-NW 295 0 min 0 W/m 2,8 C -5,7 C 21,1 km/h (4 Bft)
17.02.2012 05:14 3,5 C 96 % 1014,5 hPa 0,0 l/m 27,0 km/h (5 Bft) W-NW 295 0 min 0 W/m 2,9 C -7,6 C 27,0 km/h (5 Bft)
17.02.2012 05:30 3,5 C 96 % 1014,5 hPa 0,0 l/m 15,5 km/h (3 Bft) NW 315 0 min 0 W/m 2,9 C -3,0 C 15,5 km/h (3 Bft)
17.02.2012 05:45 3,7 C 96 % 1014,5 hPa 0,0 l/m 19,5 km/h (3 Bft) NW 305 0 min 0 W/m 3,1 C -4,6 C 19,5 km/h (3 Bft)
17.02.2012 06:00 3,7 C 96 % 1014,5 hPa 0,0 l/m 22,5 km/h (4 Bft) NW 310 0 min 0 W/m 3,1 C -5,8 C 22,5 km/h (4 Bft)
17.02.2012 06:15 3,7 C 96 % 1014,5 hPa 0,0 l/m 17,4 km/h (3 Bft) NW 320 0 min 0 W/m 3,1 C -3,7 C 17,4 km/h (3 Bft)
17.02.2012 06:30 3,5 C 96 % 1014,5 hPa 0,0 l/m 17,7 km/h (3 Bft) NW 320 0 min 0 W/m 2,9 C -4,1 C 17,7 km/h (3 Bft)
17.02.2012 06:45 3,3 C 96 % 1014,5 hPa 0,0 l/m 17,5 km/h (3 Bft) W-NW 300 0 min 0 W/m 2,7 C -4,3 C 17,5 km/h (3 Bft)
17.02.2012 06:59 3,3 C 96 % 1014,5 hPa 0,0 l/m 18,9 km/h (3 Bft) NW 315 0 min 0 W/m 2,7 C -4,9 C 18,9 km/h (3 Bft)
17.02.2012 07:15 3,5 C 96 % 1014,5 hPa 0,0 l/m 17,2 km/h (3 Bft) NW 315 0 min 0 W/m 2,9 C -3,9 C 17,2 km/h (3 Bft)
17.02.2012 07:30 3,1 C 96 % 1015,5 hPa 0,0 l/m 16,1 km/h (3 Bft) W-NW 290 0 min 0 W/m 2,5 C -3,8 C 16,1 km/h (3 Bft)
17.02.2012 07:45 3,1 C 96 % 1015,5 hPa 0,0 l/m 10,2 km/h (2 Bft) W 265 0 min 0 W/m 2,5 C -0,2 C 10,2 km/h (2 Bft)
17.02.2012 08:00 3,0 C 96 % 1015,5 hPa 0,0 l/m 13,0 km/h (3 Bft) W 270 0 min 0 W/m 2,4 C -2,2 C 13,0 km/h (3 Bft)
17.02.2012 08:15 2,9 C 96 % 1015,5 hPa 0,0 l/m 16,8 km/h (3 Bft) W 275 0 min 0 W/m 2,3 C -4,4 C 16,8 km/h (3 Bft)
17.02.2012 08:30 2,9 C 96 % 1015,5 hPa 0,0 l/m 16,4 km/h (3 Bft) W 270 0 min 0 W/m 2,3 C -4,2 C 16,4 km/h (3 Bft)
17.02.2012 08:45 2,8 C 96 % 1015,5 hPa 0,0 l/m 17,9 km/h (3 Bft) W 275 0 min 0 W/m 2,2 C -5,1 C 17,9 km/h (3 Bft)
17.02.2012 09:00 2,8 C 96 % 1015,5 hPa 0,0 l/m 18,4 km/h (3 Bft) W 270 0 min 0 W/m 2,2 C -5,3 C 18,4 km/h (3 Bft)
17.02.2012 09:14 2,9 C 96 % 1015,5 hPa 0,0 l/m 19,9 km/h (4 Bft) W 280 0 min 0 W/m 2,3 C -5,8 C 19,9 km/h (4 Bft)
17.02.2012 09:30 3,0 C 96 % 1015,5 hPa 0,0 l/m 20,9 km/h (4 Bft) W 275 0 min 0 W/m 2,4 C -6,1 C 20,9 km/h (4 Bft)
17.02.2012 09:45 2,8 C 96 % 1015,5 hPa 0,0 l/m 23,3 km/h (4 Bft) W 275 0 min 0 W/m 2,2 C -7,3 C 23,3 km/h (4 Bft)
17.02.2012 10:00 2,9 C 96 % 1015,5 hPa 0,0 l/m 20,0 km/h (4 Bft) W 275 0 min 0 W/m 2,3 C -5,9 C 20,0 km/h (4 Bft)
17.02.2012 10:15 2,9 C 96 % 1016,5 hPa 0,0 l/m 23,0 km/h (4 Bft) W 260 0 min 0 W/m 2,3 C -7,1 C 23,0 km/h (4 Bft)
17.02.2012 10:30 3,1 C 96 % 1016,5 hPa 0,0 l/m 20,8 km/h (4 Bft) W-NW 290 0 min 0 W/m 2,5 C -6,0 C 20,8 km/h (4 Bft)
17.02.2012 10:44 3,3 C 96 % 1016,5 hPa 0,0 l/m 20,3 km/h (4 Bft) W 270 0 min 0 W/m 2,7 C -5,5 C 20,3 km/h (4 Bft)
17.02.2012 10:59 3,2 C 96 % 1016,5 hPa 0,0 l/m 19,5 km/h (3 Bft) W 270 0 min 0 W/m 2,6 C -5,3 C 19,5 km/h (3 Bft)
17.02.2012 11:15 3,3 C 96 % 1016,5 hPa 0,0 l/m 18,8 km/h (3 Bft) W-NW 285 0 min 0 W/m 2,7 C -4,8 C 18,8 km/h (3 Bft)
17.02.2012 11:30 3,4 C 96 % 1016,5 hPa 0,0 l/m 22,1 km/h (4 Bft) W 275 0 min 0 W/m 2,8 C -6,1 C 22,1 km/h (4 Bft)
17.02.2012 11:45 3,4 C 96 % 1016,5 hPa 0,0 l/m 23,0 km/h (4 Bft) W 275 0 min 0 W/m 2,8 C -6,4 C 23,0 km/h (4 Bft)
17.02.2012 12:00 3,5 C 96 % 1016,5 hPa 0,0 l/m 20,7 km/h (4 Bft) W 270 0 min 0 W/m 2,9 C -5,4 C 20,7 km/h (4 Bft)
17.02.2012 12:15 3,5 C 96 % 1016,5 hPa 0,0 l/m 27,0 km/h (5 Bft) W 260 0 min 0 W/m 2,9 C -7,6 C 27,0 km/h (5 Bft)
17.02.2012 12:30 3,6 C 96 % 1016,5 hPa 0,0 l/m 18,8 km/h (3 Bft) W 280 0 min 0 W/m 3,0 C -4,5 C 18,8 km/h (3 Bft)
17.02.2012 12:45 3,7 C 96 % 1016,5 hPa 0,0 l/m 19,0 km/h (3 Bft) W 275 0 min 0 W/m 3,1 C -4,4 C 19,0 km/h (3 Bft)
17.02.2012 13:00 3,8 C 96 % 1016,5 hPa 0,0 l/m 17,0 km/h (3 Bft) W-NW 290 0 min 0 W/m 3,2 C -3,4 C 17,0 km/h (3 Bft)
17.02.2012 13:14 3,9 C 96 % 1016,5 hPa 0,0 l/m 22,1 km/h (4 Bft) W-NW 290 0 min 0 W/m 3,3 C -5,4 C 22,1 km/h (4 Bft)
17.02.2012 13:29 4,1 C 96 % 1016,5 hPa 0,0 l/m 18,7 km/h (3 Bft) W 270 0 min 0 W/m 3,5 C -3,8 C 18,7 km/h (3 Bft)
17.02.2012 13:45 4,3 C 96 % 1016,5 hPa 0,0 l/m 19,8 km/h (3 Bft) W 260 0 min 0 W/m 3,7 C -4,0 C 19,8 km/h (3 Bft)
17.02.2012 14:00 4,6 C 96 % 1016,5 hPa 0,0 l/m 20,0 km/h (4 Bft) W 275 0 min 0 W/m 4,0 C -3,7 C 20,0 km/h (4 Bft)
17.02.2012 14:15 5,2 C 95 % 1016,5 hPa 0,0 l/m 18,3 km/h (3 Bft) W 275 0 min 0 W/m 4,5 C -2,2 C 18,3 km/h (3 Bft)
17.02.2012 14:30 4,7 C 95 % 1016,5 hPa 0,0 l/m 19,5 km/h (3 Bft) W 270 0 min 0 W/m 4,0 C -3,4 C 19,5 km/h (3 Bft)
17.02.2012 14:45 4,8 C 95 % 1016,5 hPa 0,0 l/m 22,4 km/h (4 Bft) W-NW 290 0 min 0 W/m 4,1 C -4,3 C 22,4 km/h (4 Bft)
17.02.2012 14:59 5,1 C 95 % 1016,5 hPa 0,0 l/m 22,1 km/h (4 Bft) W-NW 285 0 min 0 W/m 4,4 C -3,8 C 22,1 km/h (4 Bft)
17.02.2012 15:15 4,9 C 94 % 1016,5 hPa 0,0 l/m 24,0 km/h (4 Bft) W-NW 295 0 min 0 W/m 4,0 C -4,8 C 24,0 km/h (4 Bft)
17.02.2012 15:30 4,8 C 94 % 1016,5 hPa 0,0 l/m 26,4 km/h (4 Bft) NW 305 0 min 0 W/m 3,9 C -5,6 C 26,4 km/h (4 Bft)
17.02.2012 15:45 4,9 C 94 % 1016,5 hPa 0,0 l/m 24,4 km/h (4 Bft) W-NW 290 0 min 0 W/m 4,0 C -4,9 C 24,4 km/h (4 Bft)
17.02.2012 16:00 4,5 C 93 % 1016,5 hPa 0,0 l/m 23,6 km/h (4 Bft) W-NW 300 0 min 0 W/m 3,5 C -5,2 C 23,6 km/h (4 Bft)
17.02.2012 16:15 3,8 C 93 % 1016,5 hPa 0,0 l/m 26,6 km/h (4 Bft) NW 305 0 min 0 W/m 2,8 C -7,1 C 26,6 km/h (4 Bft)
17.02.2012 16:30 3,6 C 94 % 1016,5 hPa 0,0 l/m 23,9 km/h (4 Bft) NW 305 0 min 0 W/m 2,7 C -6,5 C 23,9 km/h (4 Bft)
17.02.2012 16:45 3,4 C 94 % 1016,5 hPa 0,0 l/m 20,9 km/h (4 Bft) W-NW 295 0 min 0 W/m 2,5 C -5,6 C 20,9 km/h (4 Bft)
17.02.2012 17:00 3,3 C 94 % 1016,5 hPa 0,0 l/m 25,0 km/h (4 Bft) NW 305 0 min 0 W/m 2,4 C -7,2 C 25,0 km/h (4 Bft)
17.02.2012 17:15 3,1 C 94 % 1016,5 hPa 0,0 l/m 22,5 km/h (4 Bft) NW 315 0 min 0 W/m 2,2 C -6,6 C 22,5 km/h (4 Bft)
17.02.2012 17:29 2,9 C 95 % 1016,5 hPa 0,0 l/m 21,0 km/h (4 Bft) NW 315 0 min 0 W/m 2,2 C -6,3 C 21,0 km/h (4 Bft)
17.02.2012 17:44 2,8 C 94 % 1016,5 hPa 0,0 l/m 21,5 km/h (4 Bft) W-NW 300 0 min 0 W/m 1,9 C -6,6 C 21,5 km/h (4 Bft)
17.02.2012 18:00 2,8 C 94 % 1016,5 hPa 0,0 l/m 16,3 km/h (3 Bft) NW 305 0 min 0 W/m 1,9 C -4,3 C 16,3 km/h (3 Bft)
17.02.2012 18:15 2,9 C 95 % 1017,5 hPa 0,0 l/m 20,1 km/h (4 Bft) W-NW 285 0 min 0 W/m 2,2 C -5,9 C 20,1 km/h (4 Bft)
17.02.2012 18:30 2,9 C 95 % 1017,5 hPa 0,0 l/m 11,0 km/h (2 Bft) W-NW 285 0 min 0 W/m 2,2 C -1,0 C 11,0 km/h (2 Bft)
17.02.2012 18:45 2,9 C 95 % 1017,5 hPa 0,0 l/m 12,6 km/h (3 Bft) W 280 0 min 0 W/m 2,2 C -2,1 C 12,6 km/h (3 Bft)
17.02.2012 19:00 3,1 C 95 % 1017,5 hPa 0,0 l/m 11,5 km/h (2 Bft) W 270 0 min 0 W/m 2,4 C -1,1 C 11,5 km/h (2 Bft)
17.02.2012 19:15 3,2 C 95 % 1017,5 hPa 0,0 l/m 11,6 km/h (2 Bft) W 265 0 min 0 W/m 2,5 C -1,1 C 11,6 km/h (2 Bft)
17.02.2012 19:30 3,4 C 95 % 1017,5 hPa 0,0 l/m 13,1 km/h (3 Bft) W 270 0 min 0 W/m 2,7 C -1,8 C 13,1 km/h (3 Bft)
17.02.2012 19:45 3,5 C 95 % 1016,5 hPa 0,0 l/m 12,1 km/h (2 Bft) W 280 0 min 0 W/m 2,8 C -1,0 C 12,1 km/h (2 Bft)
17.02.2012 20:00 3,5 C 95 % 1016,5 hPa 0,0 l/m 13,4 km/h (3 Bft) W 275 0 min 0 W/m 2,8 C -1,8 C 13,4 km/h (3 Bft)
17.02.2012 20:15 3,5 C 96 % 1017,5 hPa 0,0 l/m 15,5 km/h (3 Bft) W 265 0 min 0 W/m 2,9 C -3,0 C 15,5 km/h (3 Bft)
17.02.2012 20:30 3,4 C 96 % 1016,5 hPa 0,0 l/m 20,5 km/h (4 Bft) W 265 0 min 0 W/m 2,8 C -5,4 C 20,5 km/h (4 Bft)
17.02.2012 20:45 3,3 C 95 % 1016,5 hPa 0,0 l/m 18,6 km/h (3 Bft) W 260 0 min 0 W/m 2,6 C -4,8 C 18,6 km/h (3 Bft)
17.02.2012 21:00 3,3 C 95 % 1016,5 hPa 0,0 l/m 15,8 km/h (3 Bft) W 270 0 min 0 W/m 2,6 C -3,4 C 15,8 km/h (3 Bft)
17.02.2012 21:15 3,5 C 96 % 1016,5 hPa 0,0 l/m 19,8 km/h (3 Bft) W 260 0 min 0 W/m 2,9 C -5,0 C 19,8 km/h (3 Bft)
17.02.2012 21:29 3,5 C 96 % 1016,5 hPa 0,0 l/m 23,3 km/h (4 Bft) W-SW 250 0 min 0 W/m 2,9 C -6,4 C 23,3 km/h (4 Bft)
17.02.2012 21:44 3,4 C 96 % 1016,5 hPa 0,0 l/m 20,6 km/h (4 Bft) W-SW 255 0 min 0 W/m 2,8 C -5,5 C 20,6 km/h (4 Bft)
17.02.2012 22:00 3,5 C 96 % 1016,5 hPa 0,0 l/m 19,5 km/h (3 Bft) W-SW 255 0 min 0 W/m 2,9 C -4,9 C 19,5 km/h (3 Bft)
17.02.2012 22:15 3,6 C 96 % 1016,5 hPa 0,0 l/m 18,1 km/h (3 Bft) W-SW 250 0 min 0 W/m 3,0 C -4,2 C 18,1 km/h (3 Bft)
17.02.2012 22:30 3,7 C 96 % 1015,5 hPa 0,0 l/m 21,3 km/h (4 Bft) W-SW 250 0 min 0 W/m 3,1 C -5,4 C 21,3 km/h (4 Bft)
17.02.2012 22:45 3,7 C 96 % 1015,5 hPa 0,0 l/m 19,0 km/h (3 Bft) W-SW 250 0 min 0 W/m 3,1 C -4,4 C 19,0 km/h (3 Bft)
17.02.2012 23:00 3,7 C 96 % 1015,5 hPa 0,0 l/m 20,6 km/h (4 Bft) W-SW 250 0 min 0 W/m 3,1 C -5,1 C 20,6 km/h (4 Bft)
17.02.2012 23:15 3,8 C 96 % 1015,5 hPa 0,0 l/m 18,1 km/h (3 Bft) W 260 0 min 0 W/m 3,2 C -3,9 C 18,1 km/h (3 Bft)
17.02.2012 23:30 3,8 C 96 % 1015,5 hPa 0,0 l/m 18,3 km/h (3 Bft) W-SW 250 0 min 0 W/m 3,2 C -4,0 C 18,3 km/h (3 Bft)
17.02.2012 23:45 3,7 C 96 % 1015,5 hPa 0,0 l/m 18,8 km/h (3 Bft) W-SW 255 0 min 0 W/m 3,1 C -4,3 C 18,8 km/h (3 Bft)
_ Min-Zeit 08:45 16:00 01:00 - 07:45 - - - - 17:44 01:30 07:45
Minimum _ 2,8 C 93 % 1014,5 hPa - 10,2 km/h (2 Bft) - - - - 1,9 C -8,5 C 10,2 km/h (2 Bft)
_ Max-Zeit 14:15 00:30 03:30 00:00 01:30 - - 00:00 00:00 14:15 07:45 01:30
Maximum _ 5,2 C 96 % 1041,5 hPa 0,0 l/m 29,5 km/h
W-NW (5 Bft)
- - 0 min 0 W/m 4,5 C -0,2 C 29,5 km/h
W-NW (5 Bft)
Durchschnitt _ 3,5 C 96 % 1016,1 hPa #0,0 l/m 20,1 km/h (4 Bft) W - #0 min. 0 W/m 2,9 C -5,0 C 20,1 km/h (4 Bft)
copyright by Holger Just